Aeroporto :
LOGIN :

Iscrizione | Disclaimer

   EN    FR    IT 

 










Sommario :    VFR   VFR Marginale   IFR   IFR Intensivo   IFR Molto Intensivo
Visibilità : 
Base nubi : 
>= 8 km
>= 3000ft
5 / 8 km
1000 / 3000 ft
1500m / 5 km
500 / 1000 ft
800 / 1500m
200 / 500 ft
< 800m
< 200 ft
Simboli :   Temporali  Nebbia  Neve Forte  Precipitazioni Forti  Vento > 20 kt
SIGMETs :   Varie  Temporali  Ghiacco  Turbolenza  Onda orograficha  Ceneri Vulcaniche






- Altitudine del aeroporto : 144 ft
- Codice IATA : PGF


LFMP - Perpignan

ULTIMO METAR :
  • 271530Z AUTO 30013KT 9999 OVC052 19/11 Q1019 NOSIG

METARs OBSOLETI :
  • 271500Z AUTO 31010KT 9999 OVC052 19/12 Q1019 NOSIG
  • 271430Z AUTO 30013KT 9999 OVC054 19/12 Q1019 NOSIG
  • 271400Z AUTO 30013KT 9999 OVC052 19/12 Q1019 TEMPO SHRA FEW050CB BKN050 BKN080
  • 271330Z AUTO 30014KT 9999 OVC052 20/12 Q1019 TEMPO SHRA FEW050CB BKN050 BKN080
  • 271300Z AUTO 30014KT 270V330 9999 OVC050 20/12 Q1019 TEMPO SHRA FEW050CB BKN050 BKN080
  • 271230Z AUTO 30015KT 9999 OVC048 20/12 Q1019 TEMPO SHRA FEW050CB BKN050 BKN080
  • 271200Z AUTO 29014KT 9999 OVC049 20/12 Q1019 TEMPO SHRA FEW050CB BKN050 BKN080
  • 271130Z AUTO 30013KT 280V340 9999 OVC052 20/12 Q1019 TEMPO SHRA FEW050CB BKN050 BKN080
  • 271100Z AUTO 30013KT 9999 OVC049 20/12 Q1019 TEMPO SHRA FEW050CB BKN050 BKN080

TAF TAF LFMP
Valido dal 27 a 15 ore il 28 a 15 ore UTC


271400Z 2715/2815 32012KT 9999 BKN050
BECMG 2717/2719 CAVOK
ATIS : +33 4 68 63 75 12



MetMap, La meteo Aeronautica in un colpo d'occhio ! - Copyright ORBIFLY Dicembre 2007 - Disclaimer

ORBIFLY MET'MAP TEAM :

Programmazione e sviluppo : Alexandra Zaïnal
Concezione : Baudouin d'Aumeries
Supporto tecnico e logistico : Manuel Goepfert
Aiuto : Marc-Olivier Méhu
Aiuto per la traduzione : Arnaldo La Scala




FONTI E CREDITI :

   NOAA